sensor_id;sensor_type;location;lat;lon;timestamp;P1;durP1;ratioP1;P2;durP2;ratioP2
61741;SDS011;47650;49.848;9.620;2023-02-03T00:02:28;13.82;;;6.13;;
61741;SDS011;47650;49.848;9.620;2023-02-03T00:04:53;7.07;;;4.72;;
61741;SDS011;47650;49.848;9.620;2023-02-03T00:07:20;8.20;;;4.80;;
61741;SDS011;47650;49.848;9.620;2023-02-03T00:09:45;8.15;;;4.90;;
61741;SDS011;47650;49.848;9.620;2023-02-03T00:12:12;9.55;;;4.57;;
61741;SDS011;47650;49.848;9.620;2023-02-03T00:14:39;9.10;;;5.53;;
61741;SDS011;47650;49.848;9.620;2023-02-03T00:17:11;8.25;;;4.72;;
61741;SDS011;47650;49.848;9.620;2023-02-03T00:19:36;10.75;;;6.20;;
61741;SDS011;47650;49.848;9.620;2023-02-03T00:22:08;7.47;;;4.47;;
61741;SDS011;47650;49.848;9.620;2023-02-03T00:24:33;10.27;;;6.10;;
61741;SDS011;47650;49.848;9.620;2023-02-03T00:26:59;8.48;;;3.10;;
61741;SDS011;47650;49.848;9.620;2023-02-03T00:29:25;9.80;;;5.20;;
61741;SDS011;47650;49.848;9.620;2023-02-03T00:31:56;5.75;;;3.45;;
61741;SDS011;47650;49.848;9.620;2023-02-03T00:34:28;7.35;;;4.20;;
61741;SDS011;47650;49.848;9.620;2023-02-03T00:36:54;9.07;;;4.60;;
61741;SDS011;47650;49.848;9.620;2023-02-03T00:39:20;6.85;;;3.40;;
61741;SDS011;47650;49.848;9.620;2023-02-03T00:41:47;5.68;;;3.63;;
61741;SDS011;47650;49.848;9.620;2023-02-03T00:44:13;7.72;;;4.10;;
61741;SDS011;47650;49.848;9.620;2023-02-03T00:46:40;6.45;;;3.63;;
61741;SDS011;47650;49.848;9.620;2023-02-03T00:49:06;10.40;;;4.18;;
61741;SDS011;47650;49.848;9.620;2023-02-03T00:51:37;6.47;;;3.47;;
61741;SDS011;47650;49.848;9.620;2023-02-03T00:54:06;8.45;;;3.80;;
61741;SDS011;47650;49.848;9.620;2023-02-03T00:56:32;8.25;;;3.05;;
61741;SDS011;47650;49.848;9.620;2023-02-03T00:59:05;5.82;;;3.03;;
61741;SDS011;47650;49.848;9.620;2023-02-03T01:01:31;6.32;;;3.40;;
61741;SDS011;47650;49.848;9.620;2023-02-03T01:03:58;6.93;;;3.47;;
61741;SDS011;47650;49.848;9.620;2023-02-03T01:06:25;7.15;;;3.15;;
61741;SDS011;47650;49.848;9.620;2023-02-03T01:08:52;7.63;;;4.30;;
61741;SDS011;47650;49.848;9.620;2023-02-03T01:11:20;6.60;;;3.40;;
61741;SDS011;47650;49.848;9.620;2023-02-03T01:13:49;6.18;;;2.90;;
61741;SDS011;47650;49.848;9.620;2023-02-03T01:16:17;11.43;;;3.95;;
61741;SDS011;47650;49.848;9.620;2023-02-03T01:18:44;10.50;;;4.05;;
61741;SDS011;47650;49.848;9.620;2023-02-03T01:21:12;6.75;;;3.67;;
61741;SDS011;47650;49.848;9.620;2023-02-03T01:23:39;5.93;;;3.30;;
61741;SDS011;47650;49.848;9.620;2023-02-03T01:26:07;5.97;;;3.67;;
61741;SDS011;47650;49.848;9.620;2023-02-03T01:28:35;8.68;;;3.63;;
61741;SDS011;47650;49.848;9.620;2023-02-03T01:31:08;9.75;;;4.32;;
61741;SDS011;47650;49.848;9.620;2023-02-03T01:33:38;6.20;;;3.75;;
61741;SDS011;47650;49.848;9.620;2023-02-03T01:36:11;9.88;;;4.78;;
61741;SDS011;47650;49.848;9.620;2023-02-03T01:38:38;9.77;;;3.72;;
61741;SDS011;47650;49.848;9.620;2023-02-03T01:41:06;6.78;;;3.28;;
61741;SDS011;47650;49.848;9.620;2023-02-03T01:43:41;11.93;;;4.78;;
61741;SDS011;47650;49.848;9.620;2023-02-03T01:48:46;10.05;;;6.20;;
61741;SDS011;47650;49.848;9.620;2023-02-03T01:51:12;15.07;;;9.05;;
61741;SDS011;47650;49.848;9.620;2023-02-03T01:53:40;9.68;;;6.25;;
61741;SDS011;47650;49.848;9.620;2023-02-03T01:56:07;13.18;;;7.57;;
61741;SDS011;47650;49.848;9.620;2023-02-03T01:58:35;12.98;;;7.15;;
61741;SDS011;47650;49.848;9.620;2023-02-03T02:01:09;5.65;;;3.92;;
61741;SDS011;47650;49.848;9.620;2023-02-03T02:03:53;6.57;;;4.07;;
61741;SDS011;47650;49.848;9.620;2023-02-03T02:06:24;9.77;;;5.45;;
61741;SDS011;47650;49.848;9.620;2023-02-03T02:08:52;10.13;;;6.35;;
61741;SDS011;47650;49.848;9.620;2023-02-03T02:11:19;6.55;;;4.68;;
61741;SDS011;47650;49.848;9.620;2023-02-03T02:13:45;10.35;;;5.15;;
61741;SDS011;47650;49.848;9.620;2023-02-03T02:16:16;9.35;;;3.92;;
61741;SDS011;47650;49.848;9.620;2023-02-03T02:19:09;6.03;;;3.92;;
61741;SDS011;47650;49.848;9.620;2023-02-03T02:22:05;5.90;;;3.58;;
61741;SDS011;47650;49.848;9.620;2023-02-03T02:33:56;5.07;;;3.83;;
61741;SDS011;47650;49.848;9.620;2023-02-03T02:36:40;7.45;;;3.38;;
61741;SDS011;47650;49.848;9.620;2023-02-03T02:42:00;6.68;;;3.70;;
61741;SDS011;47650;49.848;9.620;2023-02-03T02:44:34;3.58;;;2.40;;
61741;SDS011;47650;49.848;9.620;2023-02-03T02:47:10;7.13;;;3.47;;
61741;SDS011;47650;49.848;9.620;2023-02-03T02:49:49;5.88;;;3.30;;
61741;SDS011;47650;49.848;9.620;2023-02-03T02:52:21;4.72;;;2.67;;
61741;SDS011;47650;49.848;9.620;2023-02-03T02:54:53;6.88;;;2.35;;
61741;SDS011;47650;49.848;9.620;2023-02-03T03:02:33;6.47;;;3.55;;
61741;SDS011;47650;49.848;9.620;2023-02-03T03:05:04;5.22;;;2.85;;
61741;SDS011;47650;49.848;9.620;2023-02-03T03:07:39;9.40;;;4.20;;
61741;SDS011;47650;49.848;9.620;2023-02-03T03:10:09;7.80;;;4.15;;
61741;SDS011;47650;49.848;9.620;2023-02-03T03:12:40;6.85;;;4.07;;
61741;SDS011;47650;49.848;9.620;2023-02-03T03:15:15;3.75;;;2.75;;
61741;SDS011;47650;49.848;9.620;2023-02-03T03:17:51;7.03;;;4.27;;
61741;SDS011;47650;49.848;9.620;2023-02-03T03:20:28;5.60;;;2.65;;
61741;SDS011;47650;49.848;9.620;2023-02-03T03:23:05;7.53;;;3.63;;
61741;SDS011;47650;49.848;9.620;2023-02-03T03:25:38;9.43;;;4.50;;
61741;SDS011;47650;49.848;9.620;2023-02-03T03:28:10;5.18;;;4.10;;
61741;SDS011;47650;49.848;9.620;2023-02-03T03:30:39;9.50;;;5.30;;
61741;SDS011;47650;49.848;9.620;2023-02-03T03:33:06;7.95;;;5.18;;
61741;SDS011;47650;49.848;9.620;2023-02-03T03:35:52;5.13;;;3.58;;
61741;SDS011;47650;49.848;9.620;2023-02-03T03:38:25;7.43;;;3.67;;
61741;SDS011;47650;49.848;9.620;2023-02-03T03:41:12;6.35;;;5.10;;
61741;SDS011;47650;49.848;9.620;2023-02-03T03:44:00;6.45;;;3.55;;
61741;SDS011;47650;49.848;9.620;2023-02-03T03:46:41;8.15;;;5.20;;
61741;SDS011;47650;49.848;9.620;2023-02-03T03:49:20;5.80;;;3.25;;
61741;SDS011;47650;49.848;9.620;2023-02-03T03:51:50;3.85;;;3.03;;
61741;SDS011;47650;49.848;9.620;2023-02-03T03:57:01;6.07;;;2.85;;
61741;SDS011;47650;49.848;9.620;2023-02-03T03:59:34;9.48;;;3.05;;
61741;SDS011;47650;49.848;9.620;2023-02-03T04:02:03;5.13;;;2.35;;
61741;SDS011;47650;49.848;9.620;2023-02-03T04:04:29;6.35;;;3.28;;
61741;SDS011;47650;49.848;9.620;2023-02-03T04:06:58;7.40;;;3.10;;
61741;SDS011;47650;49.848;9.620;2023-02-03T04:09:30;5.07;;;3.00;;
61741;SDS011;47650;49.848;9.620;2023-02-03T04:12:03;4.70;;;2.85;;
61741;SDS011;47650;49.848;9.620;2023-02-03T04:14:33;2.95;;;2.10;;
61741;SDS011;47650;49.848;9.620;2023-02-03T04:19:29;5.75;;;3.50;;
61741;SDS011;47650;49.848;9.620;2023-02-03T04:21:56;4.60;;;3.90;;
61741;SDS011;47650;49.848;9.620;2023-02-03T04:24:23;4.45;;;3.53;;
61741;SDS011;47650;49.848;9.620;2023-02-03T04:26:49;5.47;;;3.33;;
61741;SDS011;47650;49.848;9.620;2023-02-03T04:29:17;4.57;;;3.17;;
61741;SDS011;47650;49.848;9.620;2023-02-03T04:31:43;5.88;;;3.15;;
61741;SDS011;47650;49.848;9.620;2023-02-03T04:34:08;5.57;;;3.25;;
61741;SDS011;47650;49.848;9.620;2023-02-03T04:36:36;4.45;;;3.28;;
61741;SDS011;47650;49.848;9.620;2023-02-03T04:39:01;4.18;;;2.67;;
61741;SDS011;47650;49.848;9.620;2023-02-03T04:41:27;2.75;;;2.20;;
61741;SDS011;47650;49.848;9.620;2023-02-03T04:43:59;3.83;;;3.30;;
61741;SDS011;47650;49.848;9.620;2023-02-03T04:46:26;2.38;;;2.08;;
61741;SDS011;47650;49.848;9.620;2023-02-03T04:48:53;5.72;;;2.47;;
61741;SDS011;47650;49.848;9.620;2023-02-03T04:51:21;3.50;;;2.33;;
61741;SDS011;47650;49.848;9.620;2023-02-03T04:53:47;4.03;;;2.78;;
61741;SDS011;47650;49.848;9.620;2023-02-03T04:56:13;1.83;;;1.65;;
61741;SDS011;47650;49.848;9.620;2023-02-03T04:58:39;5.15;;;2.72;;
61741;SDS011;47650;49.848;9.620;2023-02-03T05:01:09;3.35;;;2.20;;
61741;SDS011;47650;49.848;9.620;2023-02-03T05:03:42;4.25;;;1.92;;
61741;SDS011;47650;49.848;9.620;2023-02-03T05:06:08;3.10;;;1.83;;
61741;SDS011;47650;49.848;9.620;2023-02-03T05:08:33;3.63;;;2.30;;
61741;SDS011;47650;49.848;9.620;2023-02-03T05:10:59;2.53;;;1.90;;
61741;SDS011;47650;49.848;9.620;2023-02-03T05:13:25;3.78;;;2.08;;
61741;SDS011;47650;49.848;9.620;2023-02-03T05:15:50;3.45;;;2.35;;
61741;SDS011;47650;49.848;9.620;2023-02-03T05:18:23;5.20;;;2.90;;
61741;SDS011;47650;49.848;9.620;2023-02-03T05:20:48;6.32;;;2.92;;
61741;SDS011;47650;49.848;9.620;2023-02-03T05:23:16;3.65;;;2.90;;
61741;SDS011;47650;49.848;9.620;2023-02-03T05:25:42;5.15;;;3.85;;
61741;SDS011;47650;49.848;9.620;2023-02-03T05:28:10;4.90;;;3.70;;
61741;SDS011;47650;49.848;9.620;2023-02-03T05:30:35;4.35;;;2.85;;
61741;SDS011;47650;49.848;9.620;2023-02-03T05:33:01;2.45;;;1.83;;
61741;SDS011;47650;49.848;9.620;2023-02-03T05:35:26;3.22;;;2.13;;
61741;SDS011;47650;49.848;9.620;2023-02-03T05:37:52;3.85;;;3.42;;
61741;SDS011;47650;49.848;9.620;2023-02-03T05:40:18;6.72;;;4.57;;
61741;SDS011;47650;49.848;9.620;2023-02-03T05:43:02;3.25;;;2.10;;
61741;SDS011;47650;49.848;9.620;2023-02-03T05:45:27;5.95;;;3.78;;
61741;SDS011;47650;49.848;9.620;2023-02-03T05:48:07;4.53;;;3.60;;
61741;SDS011;47650;49.848;9.620;2023-02-03T05:50:33;5.60;;;3.47;;
61741;SDS011;47650;49.848;9.620;2023-02-03T05:53:01;2.58;;;1.67;;
61741;SDS011;47650;49.848;9.620;2023-02-03T05:55:29;4.22;;;3.50;;
61741;SDS011;47650;49.848;9.620;2023-02-03T05:57:55;3.83;;;1.63;;
61741;SDS011;47650;49.848;9.620;2023-02-03T06:00:22;2.58;;;2.38;;
61741;SDS011;47650;49.848;9.620;2023-02-03T06:02:58;5.47;;;3.30;;
61741;SDS011;47650;49.848;9.620;2023-02-03T06:05:26;5.75;;;2.45;;
61741;SDS011;47650;49.848;9.620;2023-02-03T06:07:52;4.20;;;3.00;;
61741;SDS011;47650;49.848;9.620;2023-02-03T06:10:18;4.55;;;3.65;;
61741;SDS011;47650;49.848;9.620;2023-02-03T06:12:45;4.90;;;4.20;;
61741;SDS011;47650;49.848;9.620;2023-02-03T06:15:10;4.55;;;2.38;;
61741;SDS011;47650;49.848;9.620;2023-02-03T06:17:43;3.95;;;3.55;;
61741;SDS011;47650;49.848;9.620;2023-02-03T06:20:11;4.13;;;2.58;;
61741;SDS011;47650;49.848;9.620;2023-02-03T06:22:41;6.38;;;3.20;;
61741;SDS011;47650;49.848;9.620;2023-02-03T06:25:07;3.85;;;2.75;;
61741;SDS011;47650;49.848;9.620;2023-02-03T06:27:34;4.63;;;3.42;;
61741;SDS011;47650;49.848;9.620;2023-02-03T06:30:00;3.42;;;2.67;;
61741;SDS011;47650;49.848;9.620;2023-02-03T06:32:30;8.32;;;3.63;;
61741;SDS011;47650;49.848;9.620;2023-02-03T06:34:57;5.68;;;3.50;;
61741;SDS011;47650;49.848;9.620;2023-02-03T06:37:26;4.43;;;2.47;;
61741;SDS011;47650;49.848;9.620;2023-02-03T06:39:58;4.63;;;3.13;;
61741;SDS011;47650;49.848;9.620;2023-02-03T06:42:25;5.47;;;3.72;;
61741;SDS011;47650;49.848;9.620;2023-02-03T06:44:50;4.85;;;2.45;;
61741;SDS011;47650;49.848;9.620;2023-02-03T06:47:16;5.28;;;3.40;;
61741;SDS011;47650;49.848;9.620;2023-02-03T06:49:42;3.10;;;2.28;;
61741;SDS011;47650;49.848;9.620;2023-02-03T06:52:08;2.63;;;2.08;;
61741;SDS011;47650;49.848;9.620;2023-02-03T06:54:33;4.53;;;1.85;;
61741;SDS011;47650;49.848;9.620;2023-02-03T06:56:59;5.57;;;2.28;;
61741;SDS011;47650;49.848;9.620;2023-02-03T06:59:24;3.80;;;2.47;;
61741;SDS011;47650;49.848;9.620;2023-02-03T07:01:50;4.32;;;2.45;;
61741;SDS011;47650;49.848;9.620;2023-02-03T07:04:16;5.45;;;2.72;;
61741;SDS011;47650;49.848;9.620;2023-02-03T07:06:41;2.80;;;2.15;;
61741;SDS011;47650;49.848;9.620;2023-02-03T07:09:08;4.97;;;2.70;;
61741;SDS011;47650;49.848;9.620;2023-02-03T07:11:38;3.75;;;2.15;;
61741;SDS011;47650;49.848;9.620;2023-02-03T07:14:05;3.95;;;2.58;;
61741;SDS011;47650;49.848;9.620;2023-02-03T07:16:31;3.67;;;2.40;;
61741;SDS011;47650;49.848;9.620;2023-02-03T07:18:58;4.25;;;2.58;;
61741;SDS011;47650;49.848;9.620;2023-02-03T07:21:25;4.32;;;2.35;;
61741;SDS011;47650;49.848;9.620;2023-02-03T07:23:51;3.67;;;1.85;;
61741;SDS011;47650;49.848;9.620;2023-02-03T07:26:17;4.07;;;1.73;;
61741;SDS011;47650;49.848;9.620;2023-02-03T07:28:47;4.28;;;2.30;;
61741;SDS011;47650;49.848;9.620;2023-02-03T07:31:13;3.53;;;2.30;;
61741;SDS011;47650;49.848;9.620;2023-02-03T07:33:39;3.80;;;1.80;;
61741;SDS011;47650;49.848;9.620;2023-02-03T07:36:05;4.72;;;2.50;;
61741;SDS011;47650;49.848;9.620;2023-02-03T07:38:32;3.53;;;1.85;;
61741;SDS011;47650;49.848;9.620;2023-02-03T07:40:58;2.90;;;1.60;;
61741;SDS011;47650;49.848;9.620;2023-02-03T07:43:23;2.83;;;2.10;;
61741;SDS011;47650;49.848;9.620;2023-02-03T07:45:50;3.97;;;2.10;;
61741;SDS011;47650;49.848;9.620;2023-02-03T07:50:43;5.20;;;2.78;;
61741;SDS011;47650;49.848;9.620;2023-02-03T07:53:09;4.38;;;2.30;;
61741;SDS011;47650;49.848;9.620;2023-02-03T07:55:39;7.10;;;2.47;;
61741;SDS011;47650;49.848;9.620;2023-02-03T07:58:04;4.10;;;2.38;;
61741;SDS011;47650;49.848;9.620;2023-02-03T08:00:30;4.32;;;1.95;;
61741;SDS011;47650;49.848;9.620;2023-02-03T08:02:57;2.72;;;1.80;;
61741;SDS011;47650;49.848;9.620;2023-02-03T08:05:32;3.50;;;1.75;;
61741;SDS011;47650;49.848;9.620;2023-02-03T08:07:57;3.20;;;1.73;;
61741;SDS011;47650;49.848;9.620;2023-02-03T08:10:23;4.78;;;2.33;;
61741;SDS011;47650;49.848;9.620;2023-02-03T08:12:53;2.53;;;1.70;;
61741;SDS011;47650;49.848;9.620;2023-02-03T08:15:20;3.38;;;1.85;;
61741;SDS011;47650;49.848;9.620;2023-02-03T08:17:47;4.53;;;2.00;;
61741;SDS011;47650;49.848;9.620;2023-02-03T08:20:18;4.13;;;1.80;;
61741;SDS011;47650;49.848;9.620;2023-02-03T08:22:43;3.17;;;2.13;;
61741;SDS011;47650;49.848;9.620;2023-02-03T08:25:09;3.70;;;2.15;;
61741;SDS011;47650;49.848;9.620;2023-02-03T08:27:36;5.50;;;2.05;;
61741;SDS011;47650;49.848;9.620;2023-02-03T08:30:02;2.83;;;1.98;;
61741;SDS011;47650;49.848;9.620;2023-02-03T08:32:28;3.88;;;2.15;;
61741;SDS011;47650;49.848;9.620;2023-02-03T08:34:54;3.83;;;1.95;;
61741;SDS011;47650;49.848;9.620;2023-02-03T08:37:22;3.60;;;1.60;;
61741;SDS011;47650;49.848;9.620;2023-02-03T08:39:54;3.55;;;1.95;;
61741;SDS011;47650;49.848;9.620;2023-02-03T08:42:19;3.47;;;2.13;;
61741;SDS011;47650;49.848;9.620;2023-02-03T08:44:44;3.33;;;1.85;;
61741;SDS011;47650;49.848;9.620;2023-02-03T08:47:10;2.47;;;1.63;;
61741;SDS011;47650;49.848;9.620;2023-02-03T08:49:36;4.55;;;1.55;;
61741;SDS011;47650;49.848;9.620;2023-02-03T08:52:06;2.17;;;1.40;;
61741;SDS011;47650;49.848;9.620;2023-02-03T08:54:33;4.05;;;1.80;;
61741;SDS011;47650;49.848;9.620;2023-02-03T08:56:58;2.30;;;1.40;;
61741;SDS011;47650;49.848;9.620;2023-02-03T08:59:24;6.43;;;1.70;;
61741;SDS011;47650;49.848;9.620;2023-02-03T09:01:50;3.13;;;1.83;;
61741;SDS011;47650;49.848;9.620;2023-02-03T09:04:17;4.18;;;1.60;;
61741;SDS011;47650;49.848;9.620;2023-02-03T09:06:48;5.70;;;1.70;;
61741;SDS011;47650;49.848;9.620;2023-02-03T09:09:19;3.88;;;1.50;;
61741;SDS011;47650;49.848;9.620;2023-02-03T09:14:19;4.93;;;1.90;;
61741;SDS011;47650;49.848;9.620;2023-02-03T09:16:44;4.53;;;1.63;;
61741;SDS011;47650;49.848;9.620;2023-02-03T09:19:10;3.58;;;2.03;;
61741;SDS011;47650;49.848;9.620;2023-02-03T09:21:38;3.53;;;1.40;;
61741;SDS011;47650;49.848;9.620;2023-02-03T09:24:06;2.17;;;1.20;;
61741;SDS011;47650;49.848;9.620;2023-02-03T09:26:32;2.63;;;1.50;;
61741;SDS011;47650;49.848;9.620;2023-02-03T09:28:59;1.75;;;1.13;;
61741;SDS011;47650;49.848;9.620;2023-02-03T09:31:31;2.28;;;1.38;;
61741;SDS011;47650;49.848;9.620;2023-02-03T09:33:58;2.88;;;1.40;;
61741;SDS011;47650;49.848;9.620;2023-02-03T09:36:24;3.65;;;1.80;;
61741;SDS011;47650;49.848;9.620;2023-02-03T09:38:51;3.00;;;1.58;;
61741;SDS011;47650;49.848;9.620;2023-02-03T09:44:32;4.03;;;1.42;;
61741;SDS011;47650;49.848;9.620;2023-02-03T09:47:11;4.22;;;1.60;;
61741;SDS011;47650;49.848;9.620;2023-02-03T09:49:43;2.33;;;1.33;;
61741;SDS011;47650;49.848;9.620;2023-02-03T09:52:22;2.78;;;1.25;;
61741;SDS011;47650;49.848;9.620;2023-02-03T09:54:54;4.13;;;1.70;;
61741;SDS011;47650;49.848;9.620;2023-02-03T09:57:30;4.38;;;1.92;;
61741;SDS011;47650;49.848;9.620;2023-02-03T10:00:29;1.60;;;1.10;;
61741;SDS011;47650;49.848;9.620;2023-02-03T10:03:50;3.92;;;1.30;;
61741;SDS011;47650;49.848;9.620;2023-02-03T10:12:20;1.38;;;1.08;;
61741;SDS011;47650;49.848;9.620;2023-02-03T10:17:20;1.65;;;1.00;;
61741;SDS011;47650;49.848;9.620;2023-02-03T10:22:28;4.75;;;1.45;;
61741;SDS011;47650;49.848;9.620;2023-02-03T10:27:57;4.38;;;1.42;;
61741;SDS011;47650;49.848;9.620;2023-02-03T10:30:28;2.80;;;1.13;;
61741;SDS011;47650;49.848;9.620;2023-02-03T10:33:14;4.70;;;1.70;;
61741;SDS011;47650;49.848;9.620;2023-02-03T10:35:47;2.30;;;1.20;;
61741;SDS011;47650;49.848;9.620;2023-02-03T10:41:15;1.73;;;1.00;;
61741;SDS011;47650;49.848;9.620;2023-02-03T10:43:45;1.98;;;1.17;;
61741;SDS011;47650;49.848;9.620;2023-02-03T10:46:12;5.35;;;1.15;;
61741;SDS011;47650;49.848;9.620;2023-02-03T10:48:38;3.35;;;1.40;;
61741;SDS011;47650;49.848;9.620;2023-02-03T10:53:49;4.10;;;1.10;;
61741;SDS011;47650;49.848;9.620;2023-02-03T10:56:17;1.65;;;1.00;;
61741;SDS011;47650;49.848;9.620;2023-02-03T10:58:56;2.13;;;1.25;;
61741;SDS011;47650;49.848;9.620;2023-02-03T11:01:25;2.40;;;0.98;;
61741;SDS011;47650;49.848;9.620;2023-02-03T11:04:00;2.80;;;1.00;;
61741;SDS011;47650;49.848;9.620;2023-02-03T11:06:34;1.58;;;1.20;;
61741;SDS011;47650;49.848;9.620;2023-02-03T11:09:50;4.82;;;1.45;;
61741;SDS011;47650;49.848;9.620;2023-02-03T11:12:14;7.57;;;1.38;;
61741;SDS011;47650;49.848;9.620;2023-02-03T11:14:56;1.30;;;0.80;;
61741;SDS011;47650;49.848;9.620;2023-02-03T11:17:32;1.58;;;1.02;;
61741;SDS011;47650;49.848;9.620;2023-02-03T11:20:03;2.88;;;1.27;;
61741;SDS011;47650;49.848;9.620;2023-02-03T11:22:38;4.07;;;1.13;;
61741;SDS011;47650;49.848;9.620;2023-02-03T11:27:52;1.77;;;1.05;;
61741;SDS011;47650;49.848;9.620;2023-02-03T11:30:23;2.03;;;1.20;;
61741;SDS011;47650;49.848;9.620;2023-02-03T11:32:54;2.13;;;1.25;;
61741;SDS011;47650;49.848;9.620;2023-02-03T11:35:27;4.18;;;1.00;;
61741;SDS011;47650;49.848;9.620;2023-02-03T11:37:55;2.72;;;1.40;;
61741;SDS011;47650;49.848;9.620;2023-02-03T11:40:31;3.05;;;1.63;;
61741;SDS011;47650;49.848;9.620;2023-02-03T11:45:44;2.17;;;1.02;;
61741;SDS011;47650;49.848;9.620;2023-02-03T11:48:20;3.25;;;0.93;;
61741;SDS011;47650;49.848;9.620;2023-02-03T11:54:11;2.33;;;1.25;;
61741;SDS011;47650;49.848;9.620;2023-02-03T12:08:44;2.53;;;1.10;;
61741;SDS011;47650;49.848;9.620;2023-02-03T12:11:40;1.38;;;1.00;;
61741;SDS011;47650;49.848;9.620;2023-02-03T12:22:17;2.20;;;1.10;;
61741;SDS011;47650;49.848;9.620;2023-02-03T12:24:59;3.40;;;0.90;;
61741;SDS011;47650;49.848;9.620;2023-02-03T12:27:38;3.30;;;1.13;;
61741;SDS011;47650;49.848;9.620;2023-02-03T12:30:26;3.35;;;0.80;;
61741;SDS011;47650;49.848;9.620;2023-02-03T12:33:03;3.10;;;1.08;;
61741;SDS011;47650;49.848;9.620;2023-02-03T12:35:45;2.58;;;1.25;;
61741;SDS011;47650;49.848;9.620;2023-02-03T12:38:16;3.00;;;1.27;;
61741;SDS011;47650;49.848;9.620;2023-02-03T12:40:52;2.88;;;0.90;;
61741;SDS011;47650;49.848;9.620;2023-02-03T12:43:31;1.88;;;0.88;;
61741;SDS011;47650;49.848;9.620;2023-02-03T12:46:04;2.67;;;1.10;;
61741;SDS011;47650;49.848;9.620;2023-02-03T12:51:37;2.05;;;0.95;;
61741;SDS011;47650;49.848;9.620;2023-02-03T12:54:13;1.80;;;0.93;;
61741;SDS011;47650;49.848;9.620;2023-02-03T12:56:51;3.47;;;0.93;;
61741;SDS011;47650;49.848;9.620;2023-02-03T12:59:21;2.47;;;1.45;;
61741;SDS011;47650;49.848;9.620;2023-02-03T13:01:56;3.97;;;0.98;;
61741;SDS011;47650;49.848;9.620;2023-02-03T13:04:37;1.55;;;1.10;;
61741;SDS011;47650;49.848;9.620;2023-02-03T13:07:23;1.38;;;0.90;;
61741;SDS011;47650;49.848;9.620;2023-02-03T13:12:56;1.20;;;0.90;;
61741;SDS011;47650;49.848;9.620;2023-02-03T13:20:41;3.10;;;1.10;;
61741;SDS011;47650;49.848;9.620;2023-02-03T13:23:11;3.35;;;1.05;;
61741;SDS011;47650;49.848;9.620;2023-02-03T13:26:11;1.38;;;1.00;;
61741;SDS011;47650;49.848;9.620;2023-02-03T13:34:42;0.93;;;0.75;;
61741;SDS011;47650;49.848;9.620;2023-02-03T13:40:58;2.38;;;1.38;;
61741;SDS011;47650;49.848;9.620;2023-02-03T13:43:48;0.80;;;0.80;;
61741;SDS011;47650;49.848;9.620;2023-02-03T13:46:23;2.13;;;1.00;;
61741;SDS011;47650;49.848;9.620;2023-02-03T13:49:01;1.70;;;1.20;;
61741;SDS011;47650;49.848;9.620;2023-02-03T13:51:33;2.35;;;0.93;;
61741;SDS011;47650;49.848;9.620;2023-02-03T13:54:05;1.55;;;0.90;;
61741;SDS011;47650;49.848;9.620;2023-02-03T13:56:41;3.05;;;1.52;;
61741;SDS011;47650;49.848;9.620;2023-02-03T14:04:50;3.00;;;1.55;;
61741;SDS011;47650;49.848;9.620;2023-02-03T14:15:40;1.40;;;0.90;;
61741;SDS011;47650;49.848;9.620;2023-02-03T14:18:29;1.48;;;0.88;;
61741;SDS011;47650;49.848;9.620;2023-02-03T14:21:11;0.65;;;0.65;;
61741;SDS011;47650;49.848;9.620;2023-02-03T14:23:42;1.60;;;0.90;;
61741;SDS011;47650;49.848;9.620;2023-02-03T14:26:18;2.05;;;0.98;;
61741;SDS011;47650;49.848;9.620;2023-02-03T14:28:49;1.13;;;1.02;;
61741;SDS011;47650;49.848;9.620;2023-02-03T14:42:03;1.00;;;0.90;;
61741;SDS011;47650;49.848;9.620;2023-02-03T14:45:03;1.08;;;0.80;;
61741;SDS011;47650;49.848;9.620;2023-02-03T14:54:03;1.08;;;0.68;;
61741;SDS011;47650;49.848;9.620;2023-02-03T15:06:02;1.90;;;0.70;;
61741;SDS011;47650;49.848;9.620;2023-02-03T15:08:34;0.60;;;0.60;;
61741;SDS011;47650;49.848;9.620;2023-02-03T15:11:23;1.95;;;0.80;;
61741;SDS011;47650;49.848;9.620;2023-02-03T15:13:51;0.60;;;0.50;;
61741;SDS011;47650;49.848;9.620;2023-02-03T15:16:19;1.55;;;0.90;;
61741;SDS011;47650;49.848;9.620;2023-02-03T15:18:59;0.55;;;0.40;;
61741;SDS011;47650;49.848;9.620;2023-02-03T15:21:39;1.00;;;0.70;;
61741;SDS011;47650;49.848;9.620;2023-02-03T15:24:16;1.48;;;0.80;;
61741;SDS011;47650;49.848;9.620;2023-02-03T15:26:49;1.02;;;0.80;;
61741;SDS011;47650;49.848;9.620;2023-02-03T15:29:21;1.15;;;1.00;;
61741;SDS011;47650;49.848;9.620;2023-02-03T15:32:05;0.85;;;0.70;;
61741;SDS011;47650;49.848;9.620;2023-02-03T15:37:20;0.50;;;0.43;;
61741;SDS011;47650;49.848;9.620;2023-02-03T15:40:07;1.25;;;0.60;;
61741;SDS011;47650;49.848;9.620;2023-02-03T15:45:34;0.57;;;0.50;;
61741;SDS011;47650;49.848;9.620;2023-02-03T15:51:00;0.65;;;0.50;;
61741;SDS011;47650;49.848;9.620;2023-02-03T16:05:05;0.73;;;0.60;;
61741;SDS011;47650;49.848;9.620;2023-02-03T16:07:45;0.68;;;0.68;;
61741;SDS011;47650;49.848;9.620;2023-02-03T16:10:23;1.27;;;0.88;;
61741;SDS011;47650;49.848;9.620;2023-02-03T16:13:17;2.20;;;1.00;;
61741;SDS011;47650;49.848;9.620;2023-02-03T16:16:03;1.48;;;1.00;;
61741;SDS011;47650;49.848;9.620;2023-02-03T16:18:34;1.23;;;0.88;;
61741;SDS011;47650;49.848;9.620;2023-02-03T16:22:02;1.65;;;1.17;;
61741;SDS011;47650;49.848;9.620;2023-02-03T16:24:01;2.13;;;1.13;;
61741;SDS011;47650;49.848;9.620;2023-02-03T16:26:37;2.03;;;1.40;;
61741;SDS011;47650;49.848;9.620;2023-02-03T16:31:46;1.17;;;0.77;;
61741;SDS011;47650;49.848;9.620;2023-02-03T16:34:45;1.65;;;1.08;;
61741;SDS011;47650;49.848;9.620;2023-02-03T16:37:41;3.20;;;1.10;;
61741;SDS011;47650;49.848;9.620;2023-02-03T16:40:32;2.70;;;0.93;;
61741;SDS011;47650;49.848;9.620;2023-02-03T16:43:21;1.17;;;0.80;;
61741;SDS011;47650;49.848;9.620;2023-02-03T16:46:08;1.15;;;0.98;;
61741;SDS011;47650;49.848;9.620;2023-02-03T16:48:54;1.90;;;0.90;;
61741;SDS011;47650;49.848;9.620;2023-02-03T16:51:39;2.30;;;1.58;;
61741;SDS011;47650;49.848;9.620;2023-02-03T16:54:08;1.15;;;1.00;;
61741;SDS011;47650;49.848;9.620;2023-02-03T16:56:35;1.52;;;0.90;;
61741;SDS011;47650;49.848;9.620;2023-02-03T16:59:02;0.95;;;0.68;;
61741;SDS011;47650;49.848;9.620;2023-02-03T17:01:38;0.70;;;0.70;;
61741;SDS011;47650;49.848;9.620;2023-02-03T17:04:09;0.80;;;0.80;;
61741;SDS011;47650;49.848;9.620;2023-02-03T17:06:43;2.55;;;1.00;;
61741;SDS011;47650;49.848;9.620;2023-02-03T17:09:09;1.55;;;1.10;;
61741;SDS011;47650;49.848;9.620;2023-02-03T17:11:41;2.28;;;1.00;;
61741;SDS011;47650;49.848;9.620;2023-02-03T17:14:06;1.60;;;0.88;;
61741;SDS011;47650;49.848;9.620;2023-02-03T17:16:32;1.77;;;1.05;;
61741;SDS011;47650;49.848;9.620;2023-02-03T17:19:01;1.10;;;0.90;;
61741;SDS011;47650;49.848;9.620;2023-02-03T17:21:27;2.58;;;0.90;;
61741;SDS011;47650;49.848;9.620;2023-02-03T17:23:56;2.95;;;1.02;;
61741;SDS011;47650;49.848;9.620;2023-02-03T17:26:24;1.25;;;0.80;;
61741;SDS011;47650;49.848;9.620;2023-02-03T17:28:50;1.30;;;0.93;;
61741;SDS011;47650;49.848;9.620;2023-02-03T17:31:19;1.77;;;1.33;;
61741;SDS011;47650;49.848;9.620;2023-02-03T17:33:54;1.42;;;1.05;;
61741;SDS011;47650;49.848;9.620;2023-02-03T17:36:33;2.58;;;1.63;;
61741;SDS011;47650;49.848;9.620;2023-02-03T17:38:58;2.80;;;2.38;;
61741;SDS011;47650;49.848;9.620;2023-02-03T17:41:27;1.52;;;1.35;;
61741;SDS011;47650;49.848;9.620;2023-02-03T17:43:54;3.67;;;1.80;;
61741;SDS011;47650;49.848;9.620;2023-02-03T17:46:21;2.58;;;1.92;;
61741;SDS011;47650;49.848;9.620;2023-02-03T17:48:50;3.47;;;2.10;;
61741;SDS011;47650;49.848;9.620;2023-02-03T17:51:19;3.65;;;2.42;;
61741;SDS011;47650;49.848;9.620;2023-02-03T17:53:58;5.55;;;3.47;;
61741;SDS011;47650;49.848;9.620;2023-02-03T17:56:33;3.72;;;2.70;;
61741;SDS011;47650;49.848;9.620;2023-02-03T17:59:04;3.00;;;1.80;;
61741;SDS011;47650;49.848;9.620;2023-02-03T18:01:36;3.70;;;2.83;;